createdAt,value
2023-09-04T00:00:11.821Z,96532.94
2023-09-04T00:02:43.481Z,96534.09
2023-09-04T00:05:15.174Z,96539.09
2023-09-04T00:07:46.780Z,96527.91
2023-09-04T00:10:18.330Z,96533.66
2023-09-04T00:12:49.964Z,96527.91
2023-09-04T00:15:21.811Z,96530.97
2023-09-04T00:17:53.472Z,96528.66
2023-09-04T00:20:25.744Z,96532.84
2023-09-04T00:22:57.341Z,96532.06
2023-09-04T00:25:28.958Z,96529.34
2023-09-04T00:28:00.622Z,96534.75
2023-09-04T00:30:32.561Z,96533.97
2023-09-04T00:33:04.551Z,96531.28
2023-09-04T00:35:36.185Z,96547.44
2023-09-04T00:38:07.820Z,96552.44
2023-09-04T00:40:39.635Z,96545.50
2023-09-04T00:43:11.469Z,96543.16
2023-09-04T00:45:45.359Z,96545.09
2023-09-04T00:48:17.145Z,96551.63
2023-09-04T00:50:48.696Z,96551.63
2023-09-04T00:53:20.270Z,96551.22
2023-09-04T00:55:51.951Z,96555.03
2023-09-04T00:58:23.823Z,96556.19
2023-09-04T01:00:55.806Z,96547.72
2023-09-04T01:03:28.201Z,96553.47
2023-09-04T01:05:59.832Z,96546.16
2023-09-04T01:08:31.581Z,96541.50
2023-09-04T01:11:05.893Z,96534.19
2023-09-04T01:13:44.558Z,96539.53
2023-09-04T01:16:18.177Z,96536.44
2023-09-04T01:18:50.590Z,96537.16
2023-09-04T01:21:22.306Z,96533.31
2023-09-04T01:23:54.024Z,96532.91
2023-09-04T01:26:31.552Z,96535.59
2023-09-04T01:29:18.290Z,96528.28
2023-09-04T01:32:05.862Z,96526.31
2023-09-04T01:34:47.990Z,96526.72
2023-09-04T01:37:20.800Z,96517.88
2023-09-04T01:39:53.948Z,96522.84
2023-09-04T01:42:25.479Z,96510.13
2023-09-04T01:44:57.124Z,96507.81
2023-09-04T01:47:28.806Z,96507.41
2023-09-04T01:50:00.473Z,96505.06
2023-09-04T01:52:32.000Z,96503.91
2023-09-04T01:55:03.738Z,96501.19
2023-09-04T01:57:35.264Z,96500.81
2023-09-04T02:00:07.479Z,96494.59
2023-09-04T02:02:39.120Z,96492.66
2023-09-04T02:05:10.935Z,96486.47
2023-09-04T02:07:42.516Z,96490.31
2023-09-04T02:10:14.136Z,96486.06
2023-09-04T02:12:45.679Z,96486.44
2023-09-04T02:15:17.301Z,96495.28
2023-09-04T02:17:48.911Z,96493.75
2023-09-04T02:20:20.531Z,96487.56
2023-09-04T02:22:52.432Z,96483.31
2023-09-04T02:25:25.208Z,96484.47
2023-09-04T02:27:56.787Z,96484.47
2023-09-04T02:30:28.358Z,96487.94
2023-09-04T02:33:01.301Z,96482.56
2023-09-04T02:35:33.215Z,96472.56
2023-09-04T02:38:04.921Z,96472.56
2023-09-04T02:40:37.090Z,96472.56
2023-09-04T02:43:08.519Z,96471.41
2023-09-04T02:45:41.489Z,96471.78
2023-09-04T02:48:13.110Z,96464.09
2023-09-04T02:50:44.811Z,96466.41
2023-09-04T02:53:16.372Z,96473.69
2023-09-04T02:55:51.416Z,96472.16
2023-09-04T02:58:23.441Z,96474.78
2023-09-04T03:00:55.381Z,96472.44
2023-09-04T03:03:27.027Z,96480.88
2023-09-04T03:06:07.103Z,96483.19
2023-09-04T03:08:41.605Z,96481.66
2023-09-04T03:11:14.929Z,96487.75
2023-09-04T03:13:46.625Z,96486.19
2023-09-04T03:16:18.274Z,96477.75
2023-09-04T03:18:49.946Z,96485.81
2023-09-04T03:21:21.520Z,96479.69
2023-09-04T03:23:53.186Z,96484.69
2023-09-04T03:26:24.772Z,96479.31
2023-09-04T03:28:57.126Z,96493.13
2023-09-04T03:31:28.757Z,96486.97
2023-09-04T03:34:01.670Z,96488.88
2023-09-04T03:36:33.247Z,96490.81
2023-09-04T03:39:07.874Z,96492.34
2023-09-04T03:41:39.566Z,96490.44
2023-09-04T03:44:11.160Z,96493.50
2023-09-04T03:46:43.052Z,96495.41
2023-09-04T03:49:14.879Z,96500.38
2023-09-04T03:51:46.437Z,96508.47
2023-09-04T03:54:17.977Z,96501.47
2023-09-04T03:56:50.024Z,96504.94
2023-09-04T03:59:21.589Z,96506.09
2023-09-04T04:01:53.232Z,96501.84
2023-09-04T04:04:24.853Z,96497.63
2023-09-04T04:06:56.953Z,96505.28
2023-09-04T04:09:28.559Z,96513.31
2023-09-04T04:12:00.256Z,96513.31
2023-09-04T04:14:31.779Z,96507.91
2023-09-04T04:17:03.386Z,96518.66
2023-09-04T04:19:35.311Z,96512.50
2023-09-04T04:22:06.902Z,96509.06
2023-09-04T04:24:38.489Z,96509.00
2023-09-04T04:27:10.977Z,96514.03
2023-09-04T04:29:44.290Z,96517.06
2023-09-04T04:32:16.488Z,96518.19
2023-09-04T04:34:47.912Z,96519.34
2023-09-04T04:37:19.470Z,96513.97
2023-09-04T04:39:52.887Z,96512.81
2023-09-04T04:42:27.569Z,96507.06
2023-09-04T04:44:59.166Z,96507.44
2023-09-04T04:47:30.803Z,96508.19
2023-09-04T04:50:02.937Z,96510.13
2023-09-04T04:52:34.451Z,96500.91
2023-09-04T04:55:06.436Z,96513.59
2023-09-04T04:57:38.063Z,96520.50
2023-09-04T05:00:09.990Z,96518.25
2023-09-04T05:02:41.892Z,96532.09
2023-09-04T05:05:13.494Z,96525.56
2023-09-04T05:07:45.066Z,96525.19
2023-09-04T05:10:16.709Z,96519.50
2023-09-04T05:12:48.288Z,96521.06
2023-09-04T05:15:19.856Z,96517.66
2023-09-04T05:17:51.520Z,96520.00
2023-09-04T05:20:23.142Z,96520.81
2023-09-04T05:22:54.752Z,96523.19
2023-09-04T05:25:26.295Z,96515.19
2023-09-04T05:27:57.863Z,96510.59
2023-09-04T05:30:29.410Z,96514.88
2023-09-04T05:33:01.025Z,96512.63
2023-09-04T05:35:32.561Z,96519.97
2023-09-04T05:38:04.360Z,96529.59
2023-09-04T05:40:35.987Z,96532.34
2023-09-04T05:43:07.535Z,96530.09
2023-09-04T05:45:40.187Z,96519.78
2023-09-04T05:48:11.797Z,96529.78
2023-09-04T05:50:44.355Z,96530.59
2023-09-04T05:53:19.466Z,96532.94
2023-09-04T05:56:11.900Z,96533.75
2023-09-04T05:58:44.259Z,96529.97
2023-09-04T06:01:17.609Z,96529.97
2023-09-04T06:03:50.005Z,96538.09
2023-09-04T06:06:21.785Z,96520.44
2023-09-04T06:08:53.363Z,96517.00
2023-09-04T06:11:24.992Z,96516.28
2023-09-04T06:13:56.601Z,96527.50
2023-09-04T06:16:28.218Z,96526.34
2023-09-04T06:18:59.844Z,96524.47
2023-09-04T06:21:31.480Z,96520.63
2023-09-04T06:24:03.171Z,96520.28
2023-09-04T06:26:34.684Z,96530.66
2023-09-04T06:29:06.277Z,96530.31
2023-09-04T06:31:37.951Z,96526.84
2023-09-04T06:34:09.532Z,96528.00
2023-09-04T06:36:41.067Z,96531.91
2023-09-04T06:39:12.676Z,96527.66
2023-09-04T06:41:44.220Z,96528.06
2023-09-04T06:44:15.775Z,96524.22
2023-09-04T06:46:47.313Z,96532.72
2023-09-04T06:49:18.880Z,96529.25
2023-09-04T06:51:50.412Z,96525.06
2023-09-04T06:54:21.993Z,96535.06
2023-09-04T06:56:53.683Z,96525.81
2023-09-04T06:59:25.238Z,96528.91
2023-09-04T07:01:56.789Z,96530.84
2023-09-04T07:04:28.364Z,96525.88
2023-09-04T07:06:59.864Z,96526.66
2023-09-04T07:09:31.420Z,96530.88
2023-09-04T07:12:03.141Z,96527.44
2023-09-04T07:14:34.752Z,96524.78
2023-09-04T07:17:09.458Z,96536.34
2023-09-04T07:19:41.726Z,96539.81
2023-09-04T07:22:13.304Z,96544.06
2023-09-04T07:24:44.907Z,96540.97
2023-09-04T07:27:16.442Z,96542.91
2023-09-04T07:29:48.058Z,96534.81
2023-09-04T07:32:19.594Z,96533.66
2023-09-04T07:34:56.646Z,96536.34
2023-09-04T07:37:28.507Z,96532.47
2023-09-04T07:40:00.157Z,96541.34
2023-09-04T07:42:31.895Z,96545.59
2023-09-04T07:45:04.700Z,96549.06
2023-09-04T07:47:36.219Z,96555.19
2023-09-04T07:50:08.130Z,96555.22
2023-09-04T07:52:39.728Z,96557.53
2023-09-04T07:55:11.419Z,96561.34
2023-09-04T07:57:44.324Z,96572.94
2023-09-04T08:00:22.687Z,96562.88
2023-09-04T08:02:54.379Z,96560.88
2023-09-04T08:05:26.100Z,96562.03
2023-09-04T08:07:57.654Z,96568.56
2023-09-04T08:10:29.263Z,96563.88
2023-09-04T08:13:01.089Z,96557.69
2023-09-04T08:15:32.669Z,96562.66
2023-09-04T08:18:04.746Z,96561.88
2023-09-04T08:20:37.338Z,96560.28
2023-09-04T08:23:10.680Z,96558.31
2023-09-04T08:25:42.310Z,96554.38
2023-09-04T08:28:13.827Z,96546.22
2023-09-04T08:30:45.461Z,96540.72
2023-09-04T08:33:17.017Z,96545.63
2023-09-04T08:35:48.595Z,96539.78
2023-09-04T08:38:20.150Z,96537.75
2023-09-04T08:40:51.838Z,96550.03
2023-09-04T08:43:26.390Z,96546.81
2023-09-04T08:46:00.854Z,96554.84
2023-09-04T08:48:35.249Z,96541.28
2023-09-04T08:53:59.656Z,96545.69
2023-09-04T08:56:33.100Z,96544.44
2023-09-04T08:59:04.709Z,96546.72
2023-09-04T09:01:37.773Z,96543.94
2023-09-04T09:04:10.336Z,96542.34
2023-09-04T09:06:43.365Z,96537.53
2023-09-04T09:09:17.198Z,96538.59
2023-09-04T09:11:55.125Z,96546.34
2023-09-04T09:14:28.113Z,96542.69
2023-09-04T09:17:07.017Z,96538.28
2023-09-04T09:19:39.469Z,96543.91
2023-09-04T09:22:15.989Z,96537.56
2023-09-04T09:24:53.520Z,96530.00
2023-09-04T09:27:32.413Z,96526.72
2023-09-04T09:30:04.705Z,96523.56
2023-09-04T09:32:36.950Z,96523.72
2023-09-04T09:35:10.240Z,96513.38
2023-09-04T09:37:41.811Z,96513.75
2023-09-04T09:40:16.658Z,96511.88
2023-09-04T09:42:48.329Z,96517.97
2023-09-04T09:45:20.674Z,96512.28
2023-09-04T09:50:27.822Z,96510.34
2023-09-04T09:53:01.229Z,96513.75
2023-09-04T09:55:34.625Z,96501.94
2023-09-04T09:58:08.205Z,96505.28
2023-09-04T10:00:40.469Z,96505.50
2023-09-04T10:03:13.138Z,96504.50
2023-09-04T10:05:46.004Z,96496.19
2023-09-04T10:08:18.165Z,96498.09
2023-09-04T10:10:50.804Z,96497.84
2023-09-04T10:13:27.925Z,96494.53
2023-09-04T10:16:03.609Z,96496.16
2023-09-04T10:18:41.628Z,96483.31
2023-09-04T10:21:18.370Z,96485.34
2023-09-04T10:23:57.130Z,96482.44
2023-09-04T10:26:43.066Z,96476.69
2023-09-04T10:29:19.300Z,96480.41
2023-09-04T10:31:51.875Z,96481.38
2023-09-04T10:34:23.652Z,96470.16
2023-09-04T10:36:55.243Z,96468.34
2023-09-04T10:39:27.345Z,96470.56
2023-09-04T10:41:59.331Z,96466.63
2023-09-04T10:44:48.193Z,96464.22
2023-09-04T10:47:20.145Z,96461.53
2023-09-04T10:49:52.400Z,96461.59
2023-09-04T10:52:42.199Z,96457.78
2023-09-04T10:55:14.776Z,96460.31
2023-09-04T10:58:06.350Z,96460.66
2023-09-04T11:00:42.065Z,96454.34
2023-09-04T11:03:16.303Z,96450.19
2023-09-04T11:06:03.025Z,96452.16
2023-09-04T11:08:41.563Z,96454.47
2023-09-04T11:11:13.167Z,96448.22
2023-09-04T11:13:45.361Z,96448.34
2023-09-04T11:16:17.197Z,96442.34
2023-09-04T11:19:00.196Z,96434.34
2023-09-04T11:21:33.669Z,96430.84
2023-09-04T11:24:05.848Z,96436.97
2023-09-04T11:26:37.634Z,96441.00
2023-09-04T11:29:09.003Z,96437.38
2023-09-04T11:31:44.740Z,96445.25
2023-09-04T11:34:23.784Z,96436.25
2023-09-04T11:36:55.281Z,96444.44
2023-09-04T11:39:26.875Z,96437.72
2023-09-04T11:42:01.496Z,96430.53
2023-09-04T11:44:33.085Z,96443.72
2023-09-04T11:47:05.221Z,96432.59
2023-09-04T11:49:36.851Z,96425.19
2023-09-04T11:52:08.564Z,96417.94
2023-09-04T11:54:41.302Z,96426.06
2023-09-04T11:57:13.327Z,96425.69
2023-09-04T11:59:44.883Z,96423.84
2023-09-04T12:02:16.831Z,96418.94
2023-09-04T12:04:48.571Z,96414.06
2023-09-04T12:07:20.281Z,96414.94
2023-09-04T12:09:51.916Z,96419.03
2023-09-04T12:12:23.486Z,96409.53
2023-09-04T12:14:54.997Z,96392.91
2023-09-04T12:17:30.820Z,96394.47
2023-09-04T12:20:12.096Z,96394.81
2023-09-04T12:22:54.941Z,96388.63
2023-09-04T12:25:33.277Z,96385.72
2023-09-04T12:28:11.884Z,96385.13
2023-09-04T12:30:47.471Z,96383.97
2023-09-04T12:33:19.166Z,96375.53
2023-09-04T12:35:58.120Z,96373.59
2023-09-04T12:38:29.905Z,96378.50
2023-09-04T12:41:03.123Z,96384.16
2023-09-04T12:43:35.576Z,96379.28
2023-09-04T12:46:07.551Z,96376.69
2023-09-04T12:48:39.166Z,96376.06
2023-09-04T12:51:10.828Z,96366.50
2023-09-04T12:53:42.326Z,96369.38
2023-09-04T12:56:13.842Z,96369.53
2023-09-04T12:58:45.440Z,96371.38
2023-09-04T13:01:17.426Z,96374.28
2023-09-04T13:03:49.149Z,96370.75
2023-09-04T13:06:20.866Z,96375.78
2023-09-04T13:08:52.549Z,96361.28
2023-09-04T13:11:24.109Z,96366.31
2023-09-04T13:13:55.745Z,96366.63
2023-09-04T13:16:27.186Z,96365.50
2023-09-04T13:18:58.821Z,96358.00
2023-09-04T13:21:30.381Z,96360.16
2023-09-04T13:24:02.101Z,96361.50
2023-09-04T13:26:33.470Z,96359.56
2023-09-04T13:29:05.125Z,96346.28
2023-09-04T13:31:36.560Z,96340.78
2023-09-04T13:34:08.167Z,96338.16
2023-09-04T13:36:39.679Z,96341.47
2023-09-04T13:39:11.270Z,96328.28
2023-09-04T13:41:42.639Z,96328.63
2023-09-04T13:44:14.411Z,96315.19
2023-09-04T13:46:46.099Z,96317.00
2023-09-04T13:49:17.579Z,96321.78
2023-09-04T13:51:49.273Z,96327.91
2023-09-04T13:54:20.910Z,96321.75
2023-09-04T13:56:52.383Z,96312.47
2023-09-04T13:59:23.973Z,96318.88
2023-09-04T14:01:55.406Z,96306.94
2023-09-04T14:04:27.102Z,96308.75
2023-09-04T14:06:58.668Z,96306.69
2023-09-04T14:09:30.247Z,96300.47
2023-09-04T14:12:02.033Z,96301.00
2023-09-04T14:14:33.733Z,96298.78
2023-09-04T14:17:06.275Z,96295.34
2023-09-04T14:19:37.754Z,96280.66
2023-09-04T14:22:09.173Z,96281.19
2023-09-04T14:24:40.599Z,96290.25
2023-09-04T14:27:12.011Z,96282.88
2023-09-04T14:29:43.793Z,96277.63
2023-09-04T14:32:15.563Z,96280.66
2023-09-04T14:34:47.186Z,96289.09
2023-09-04T14:37:18.930Z,96280.19
2023-09-04T14:39:53.835Z,96283.72
2023-09-04T14:42:25.237Z,96286.13
2023-09-04T14:44:56.787Z,96295.78
2023-09-04T14:47:28.184Z,96289.22
2023-09-04T14:49:59.790Z,96290.72
2023-09-04T14:52:31.339Z,96298.31
2023-09-04T14:55:03.010Z,96303.91
2023-09-04T14:57:34.562Z,96308.94
2023-09-04T15:00:07.371Z,96300.59
2023-09-04T15:02:39.056Z,96284.22
2023-09-04T15:05:10.736Z,96292.75
2023-09-04T15:07:45.146Z,96289.88
2023-09-04T15:10:17.616Z,96291.69
2023-09-04T15:12:49.340Z,96283.34
2023-09-04T15:15:21.031Z,96287.16
2023-09-04T15:17:52.629Z,96276.72
2023-09-04T15:20:24.419Z,96284.22
2023-09-04T15:22:55.978Z,96287.00
2023-09-04T15:25:27.558Z,96286.38
2023-09-04T15:28:00.410Z,96284.94
2023-09-04T15:30:31.997Z,96288.44
2023-09-04T15:33:03.725Z,96285.78
2023-09-04T15:35:35.369Z,96284.34
2023-09-04T15:38:07.505Z,96284.72
2023-09-04T15:40:39.049Z,96279.69
2023-09-04T15:43:10.583Z,96289.47
2023-09-04T15:45:42.417Z,96276.25
2023-09-04T15:48:16.022Z,96282.81
2023-09-04T15:50:50.839Z,96281.72
2023-09-04T15:53:24.568Z,96272.25
2023-09-04T15:55:56.907Z,96279.66
2023-09-04T15:58:28.948Z,96278.50
2023-09-04T16:01:01.651Z,96278.28
2023-09-04T16:03:33.822Z,96274.84
2023-09-04T16:06:05.523Z,96271.59
2023-09-04T16:08:37.478Z,96272.13
2023-09-04T16:11:09.052Z,96271.63
2023-09-04T16:13:40.610Z,96267.28
2023-09-04T16:16:12.312Z,96278.38
2023-09-04T16:18:43.909Z,96279.59
2023-09-04T16:21:16.091Z,96278.25
2023-09-04T16:23:47.618Z,96284.84
2023-09-04T16:26:19.250Z,96276.47
2023-09-04T16:28:51.446Z,96287.44
2023-09-04T16:31:25.248Z,96282.69
2023-09-04T16:33:56.796Z,96289.38
2023-09-04T16:36:28.485Z,96295.75
2023-09-04T16:39:00.618Z,96292.19
2023-09-04T16:41:32.210Z,96289.72
2023-09-04T16:44:03.910Z,96283.81
2023-09-04T16:46:36.158Z,96289.97
2023-09-04T16:49:08.029Z,96283.59
2023-09-04T16:51:53.983Z,96284.03
2023-09-04T16:54:28.345Z,96282.44
2023-09-04T16:57:00.025Z,96291.00
2023-09-04T16:59:31.601Z,96282.56
2023-09-04T17:02:03.088Z,96281.91
2023-09-04T17:04:34.623Z,96285.09
2023-09-04T17:07:06.570Z,96284.41
2023-09-04T17:09:38.123Z,96284.00
2023-09-04T17:12:10.385Z,96288.75
2023-09-04T17:14:42.143Z,96290.84
2023-09-04T17:17:13.686Z,96291.31
2023-09-04T17:19:45.246Z,96285.94
2023-09-04T17:22:16.850Z,96288.88
2023-09-04T17:24:48.620Z,96288.56
2023-09-04T17:27:20.269Z,96280.06
2023-09-04T17:29:52.964Z,96278.09
2023-09-04T17:32:24.611Z,96285.41
2023-09-04T17:34:56.213Z,96282.88
2023-09-04T17:37:27.814Z,96290.19
2023-09-04T17:39:59.600Z,96289.94
2023-09-04T17:42:31.089Z,96287.25
2023-09-04T17:45:02.623Z,96300.13
2023-09-04T17:47:34.180Z,96302.50
2023-09-04T17:50:06.170Z,96298.78
2023-09-04T17:52:37.733Z,96291.22
2023-09-04T17:55:09.451Z,96295.34
2023-09-04T17:57:41.075Z,96295.94
2023-09-04T18:00:13.072Z,96295.38
2023-09-04T18:02:44.748Z,96295.63
2023-09-04T18:05:16.496Z,96296.56
2023-09-04T18:07:49.263Z,96292.84
2023-09-04T18:10:20.804Z,96299.66
2023-09-04T18:12:52.386Z,96302.22
2023-09-04T18:15:24.092Z,96303.91
2023-09-04T18:17:55.834Z,96306.88
2023-09-04T18:20:27.219Z,96307.81
2023-09-04T18:22:58.791Z,96311.88
2023-09-04T18:25:30.334Z,96305.56
2023-09-04T18:28:02.318Z,96303.75
2023-09-04T18:30:33.959Z,96310.88
2023-09-04T18:33:05.566Z,96302.88
2023-09-04T18:35:37.190Z,96310.84
2023-09-04T18:38:08.769Z,96309.09
2023-09-04T18:40:40.304Z,96305.78
2023-09-04T18:43:11.888Z,96306.00
2023-09-04T18:45:45.383Z,96313.94
2023-09-04T18:48:17.093Z,96308.59
2023-09-04T18:50:51.629Z,96315.44
2023-09-04T18:53:23.805Z,96317.88
2023-09-04T18:55:58.427Z,96316.03
2023-09-04T18:58:30.621Z,96316.97
2023-09-04T19:01:03.691Z,96315.47
2023-09-04T19:03:35.851Z,96316.97
2023-09-04T19:06:07.891Z,96311.47
2023-09-04T19:08:39.536Z,96318.91
2023-09-04T19:11:11.142Z,96319.75
2023-09-04T19:13:42.766Z,96315.91
2023-09-04T19:16:15.288Z,96313.25
2023-09-04T19:18:47.246Z,96314.97
2023-09-04T19:21:18.684Z,96315.00
2023-09-04T19:23:50.637Z,96317.78
2023-09-04T19:26:22.250Z,96317.06
2023-09-04T19:28:54.223Z,96312.88
2023-09-04T19:31:26.098Z,96317.94
2023-09-04T19:33:57.730Z,96322.28
2023-09-04T19:36:29.284Z,96323.56
2023-09-04T19:39:00.850Z,96320.63
2023-09-04T19:41:32.441Z,96319.09
2023-09-04T19:44:04.642Z,96321.09
2023-09-04T19:46:36.247Z,96322.31
2023-09-04T19:49:07.993Z,96320.44
2023-09-04T19:51:39.552Z,96325.09
2023-09-04T19:54:11.119Z,96320.88
2023-09-04T19:56:42.685Z,96322.06
2023-09-04T19:59:14.429Z,96315.94
2023-09-04T20:01:46.053Z,96310.59
2023-09-04T20:04:17.745Z,96312.53
2023-09-04T20:06:49.269Z,96316.94
2023-09-04T20:09:20.839Z,96324.31
2023-09-04T20:11:52.382Z,96322.03
2023-09-04T20:14:23.936Z,96319.34
2023-09-04T20:16:55.676Z,96316.25
2023-09-04T20:19:27.421Z,96312.09
2023-09-04T20:21:59.185Z,96304.78
2023-09-04T20:24:30.759Z,96302.16
2023-09-04T20:27:02.328Z,96305.34
2023-09-04T20:29:33.942Z,96301.53
2023-09-04T20:32:05.900Z,96306.19
2023-09-04T20:34:37.355Z,96319.38
2023-09-04T20:37:09.097Z,96314.75
2023-09-04T20:39:40.791Z,96315.59
2023-09-04T20:42:12.462Z,96310.25
2023-09-04T20:44:45.579Z,96319.19
2023-09-04T20:47:17.166Z,96308.06
2023-09-04T20:49:48.722Z,96310.41
2023-09-04T20:52:20.354Z,96311.63
2023-09-04T20:54:51.908Z,96312.47
2023-09-04T20:57:23.501Z,96310.53
2023-09-04T20:59:55.173Z,96309.41
2023-09-04T21:02:27.300Z,96309.06
2023-09-04T21:04:59.098Z,96310.63
2023-09-04T21:07:30.682Z,96312.97
2023-09-04T21:10:02.487Z,96309.50
2023-09-04T21:12:52.999Z,96306.81
2023-09-04T21:15:43.141Z,96303.41
2023-09-04T21:18:33.621Z,96310.41
2023-09-04T21:21:23.865Z,96300.81
2023-09-04T21:24:14.343Z,96309.75
2023-09-04T21:27:04.399Z,96297.75
2023-09-04T21:29:54.868Z,96295.81
2023-09-04T21:32:45.288Z,96286.16
2023-09-04T21:35:35.464Z,96294.31
2023-09-04T21:38:25.991Z,96281.59
2023-09-04T21:41:16.285Z,96282.34
2023-09-04T21:44:06.770Z,96273.09
2023-09-04T21:46:57.248Z,96274.28
2023-09-04T21:49:47.537Z,96262.38
2023-09-04T21:52:37.620Z,96270.91
2023-09-04T21:55:28.282Z,96273.28
2023-09-04T21:58:18.634Z,96272.53
2023-09-04T22:01:09.314Z,96275.63
2023-09-04T22:03:59.963Z,96266.03
2023-09-04T22:06:50.196Z,96268.78
2023-09-04T22:09:39.986Z,96257.22
2023-09-04T22:12:30.310Z,96259.53
2023-09-04T22:15:20.362Z,96252.59
2023-09-04T22:18:12.418Z,96256.88
2023-09-04T22:21:02.608Z,96257.63
2023-09-04T22:23:52.577Z,96251.09
2023-09-04T22:26:42.938Z,96255.00
2023-09-04T22:29:33.170Z,96251.53
2023-09-04T22:32:24.121Z,96247.69
2023-09-04T22:35:15.499Z,96245.38
2023-09-04T22:38:05.908Z,96248.09
2023-09-04T22:40:56.138Z,96235.78
2023-09-04T22:43:46.426Z,96227.66
2023-09-04T22:46:36.921Z,96228.06
2023-09-04T22:49:27.407Z,96234.69
2023-09-04T22:52:17.458Z,96218.09
2023-09-04T22:55:07.872Z,96220.03
2023-09-04T22:57:57.962Z,96214.28
2023-09-04T23:00:47.962Z,96208.09
2023-09-04T23:03:38.282Z,96210.09
2023-09-04T23:06:28.417Z,96208.19
2023-09-04T23:09:18.664Z,96207.41
2023-09-04T23:12:09.124Z,96207.41
2023-09-04T23:14:59.033Z,96198.16
2023-09-04T23:17:49.336Z,96205.84
2023-09-04T23:20:39.449Z,96199.72
2023-09-04T23:23:12.165Z,96195.47
2023-09-04T23:25:48.341Z,96196.66
2023-09-04T23:28:23.592Z,96187.78
2023-09-04T23:30:58.072Z,96179.31
2023-09-04T23:33:46.315Z,96178.56
2023-09-04T23:36:36.898Z,96175.47
2023-09-04T23:39:20.484Z,96177.41
2023-09-04T23:42:10.772Z,96177.44
2023-09-04T23:45:00.546Z,96177.06
2023-09-04T23:47:32.477Z,96172.09
2023-09-04T23:50:05.352Z,96175.91
2023-09-04T23:52:37.255Z,96170.19
2023-09-04T23:55:14.194Z,96169.81
2023-09-04T23:57:50.345Z,96168.28
